sensor_id;sensor_type;location;lat;lon;timestamp;P1;durP1;ratioP1;P2;durP2;ratioP2
4521;SDS011;2273;48.464;11.926;2023-12-20T00:00:53;7.93;;;4.93;;
4521;SDS011;2273;48.464;11.926;2023-12-20T00:03:18;8.37;;;5.20;;
4521;SDS011;2273;48.464;11.926;2023-12-20T00:05:43;7.40;;;4.90;;
4521;SDS011;2273;48.464;11.926;2023-12-20T00:08:09;9.43;;;5.13;;
4521;SDS011;2273;48.464;11.926;2023-12-20T00:10:34;6.40;;;4.47;;
4521;SDS011;2273;48.464;11.926;2023-12-20T00:13:00;7.00;;;4.60;;
4521;SDS011;2273;48.464;11.926;2023-12-20T00:15:25;8.30;;;4.83;;
4521;SDS011;2273;48.464;11.926;2023-12-20T00:17:51;7.17;;;4.70;;
4521;SDS011;2273;48.464;11.926;2023-12-20T00:20:16;6.40;;;4.60;;
4521;SDS011;2273;48.464;11.926;2023-12-20T00:22:41;7.57;;;4.97;;
4521;SDS011;2273;48.464;11.926;2023-12-20T00:25:07;7.00;;;4.63;;
4521;SDS011;2273;48.464;11.926;2023-12-20T00:27:33;6.53;;;4.50;;
4521;SDS011;2273;48.464;11.926;2023-12-20T00:29:58;5.77;;;3.80;;
4521;SDS011;2273;48.464;11.926;2023-12-20T00:32:23;7.20;;;4.33;;
4521;SDS011;2273;48.464;11.926;2023-12-20T00:34:49;6.47;;;4.30;;
4521;SDS011;2273;48.464;11.926;2023-12-20T00:37:14;6.70;;;4.43;;
4521;SDS011;2273;48.464;11.926;2023-12-20T00:39:39;5.70;;;3.80;;
4521;SDS011;2273;48.464;11.926;2023-12-20T00:42:05;7.80;;;3.70;;
4521;SDS011;2273;48.464;11.926;2023-12-20T00:44:30;5.20;;;3.30;;
4521;SDS011;2273;48.464;11.926;2023-12-20T00:46:56;5.80;;;3.43;;
4521;SDS011;2273;48.464;11.926;2023-12-20T00:49:21;4.37;;;3.10;;
4521;SDS011;2273;48.464;11.926;2023-12-20T00:51:47;4.90;;;3.60;;
4521;SDS011;2273;48.464;11.926;2023-12-20T00:54:13;5.90;;;4.07;;
4521;SDS011;2273;48.464;11.926;2023-12-20T00:56:38;4.97;;;3.30;;
4521;SDS011;2273;48.464;11.926;2023-12-20T00:59:04;4.90;;;3.50;;
4521;SDS011;2273;48.464;11.926;2023-12-20T01:01:29;4.97;;;3.60;;
4521;SDS011;2273;48.464;11.926;2023-12-20T01:03:55;5.53;;;3.93;;
4521;SDS011;2273;48.464;11.926;2023-12-20T01:06:20;5.60;;;3.93;;
4521;SDS011;2273;48.464;11.926;2023-12-20T01:08:46;4.80;;;3.33;;
4521;SDS011;2273;48.464;11.926;2023-12-20T01:11:11;5.67;;;3.00;;
4521;SDS011;2273;48.464;11.926;2023-12-20T01:13:37;4.80;;;3.47;;
4521;SDS011;2273;48.464;11.926;2023-12-20T01:16:02;5.27;;;3.43;;
4521;SDS011;2273;48.464;11.926;2023-12-20T01:18:28;5.57;;;3.07;;
4521;SDS011;2273;48.464;11.926;2023-12-20T01:20:56;5.07;;;3.40;;
4521;SDS011;2273;48.464;11.926;2023-12-20T01:23:21;5.67;;;3.10;;
4521;SDS011;2273;48.464;11.926;2023-12-20T01:25:47;5.40;;;3.17;;
4521;SDS011;2273;48.464;11.926;2023-12-20T01:28:13;4.95;;;3.30;;
4521;SDS011;2273;48.464;11.926;2023-12-20T01:30:38;4.90;;;3.00;;
4521;SDS011;2273;48.464;11.926;2023-12-20T01:33:04;8.43;;;3.67;;
4521;SDS011;2273;48.464;11.926;2023-12-20T01:35:30;3.80;;;2.90;;
4521;SDS011;2273;48.464;11.926;2023-12-20T01:37:55;6.40;;;3.50;;
4521;SDS011;2273;48.464;11.926;2023-12-20T01:40:22;5.55;;;3.15;;
4521;SDS011;2273;48.464;11.926;2023-12-20T01:42:47;4.03;;;2.90;;
4521;SDS011;2273;48.464;11.926;2023-12-20T01:45:19;4.53;;;3.40;;
4521;SDS011;2273;48.464;11.926;2023-12-20T01:47:44;3.53;;;3.00;;
4521;SDS011;2273;48.464;11.926;2023-12-20T01:50:10;8.00;;;3.57;;
4521;SDS011;2273;48.464;11.926;2023-12-20T01:52:35;5.27;;;3.80;;
4521;SDS011;2273;48.464;11.926;2023-12-20T01:55:01;6.90;;;3.97;;
4521;SDS011;2273;48.464;11.926;2023-12-20T01:57:29;5.60;;;3.80;;
4521;SDS011;2273;48.464;11.926;2023-12-20T01:59:55;10.00;;;3.50;;
4521;SDS011;2273;48.464;11.926;2023-12-20T02:02:20;4.77;;;3.30;;
4521;SDS011;2273;48.464;11.926;2023-12-20T02:04:46;5.23;;;3.27;;
4521;SDS011;2273;48.464;11.926;2023-12-20T02:07:12;5.17;;;3.80;;
4521;SDS011;2273;48.464;11.926;2023-12-20T02:09:38;5.13;;;3.20;;
4521;SDS011;2273;48.464;11.926;2023-12-20T02:12:03;4.73;;;3.00;;
4521;SDS011;2273;48.464;11.926;2023-12-20T02:14:29;5.30;;;3.50;;
4521;SDS011;2273;48.464;11.926;2023-12-20T02:16:54;6.10;;;3.50;;
4521;SDS011;2273;48.464;11.926;2023-12-20T02:19:20;5.33;;;3.50;;
4521;SDS011;2273;48.464;11.926;2023-12-20T02:21:45;5.30;;;3.20;;
4521;SDS011;2273;48.464;11.926;2023-12-20T02:24:11;8.30;;;3.57;;
4521;SDS011;2273;48.464;11.926;2023-12-20T02:26:36;6.43;;;3.67;;
4521;SDS011;2273;48.464;11.926;2023-12-20T02:29:02;8.03;;;3.30;;
4521;SDS011;2273;48.464;11.926;2023-12-20T02:31:27;4.40;;;3.30;;
4521;SDS011;2273;48.464;11.926;2023-12-20T02:33:53;4.83;;;3.10;;
4521;SDS011;2273;48.464;11.926;2023-12-20T02:36:18;5.53;;;3.63;;
4521;SDS011;2273;48.464;11.926;2023-12-20T02:38:44;8.40;;;3.50;;
4521;SDS011;2273;48.464;11.926;2023-12-20T02:41:09;4.50;;;3.10;;
4521;SDS011;2273;48.464;11.926;2023-12-20T02:43:34;6.60;;;3.70;;
4521;SDS011;2273;48.464;11.926;2023-12-20T02:46:00;4.73;;;3.00;;
4521;SDS011;2273;48.464;11.926;2023-12-20T02:48:25;4.43;;;3.10;;
4521;SDS011;2273;48.464;11.926;2023-12-20T02:50:51;6.63;;;3.27;;
4521;SDS011;2273;48.464;11.926;2023-12-20T02:53:16;4.87;;;3.17;;
4521;SDS011;2273;48.464;11.926;2023-12-20T02:55:42;4.70;;;3.30;;
4521;SDS011;2273;48.464;11.926;2023-12-20T02:58:07;5.80;;;3.10;;
4521;SDS011;2273;48.464;11.926;2023-12-20T03:00:32;4.30;;;2.90;;
4521;SDS011;2273;48.464;11.926;2023-12-20T03:02:58;4.20;;;3.10;;
4521;SDS011;2273;48.464;11.926;2023-12-20T03:05:24;3.40;;;2.53;;
4521;SDS011;2273;48.464;11.926;2023-12-20T03:07:50;4.77;;;3.07;;
4521;SDS011;2273;48.464;11.926;2023-12-20T03:10:15;5.10;;;3.60;;
4521;SDS011;2273;48.464;11.926;2023-12-20T03:12:40;5.67;;;3.20;;
4521;SDS011;2273;48.464;11.926;2023-12-20T03:15:06;4.43;;;3.17;;
4521;SDS011;2273;48.464;11.926;2023-12-20T03:17:32;4.87;;;3.43;;
4521;SDS011;2273;48.464;11.926;2023-12-20T03:19:57;6.70;;;3.60;;
4521;SDS011;2273;48.464;11.926;2023-12-20T03:22:23;4.47;;;2.73;;
4521;SDS011;2273;48.464;11.926;2023-12-20T03:24:48;4.40;;;3.30;;
4521;SDS011;2273;48.464;11.926;2023-12-20T03:27:14;5.43;;;3.33;;
4521;SDS011;2273;48.464;11.926;2023-12-20T03:29:39;4.73;;;3.20;;
4521;SDS011;2273;48.464;11.926;2023-12-20T03:32:05;5.03;;;3.17;;
4521;SDS011;2273;48.464;11.926;2023-12-20T03:34:30;6.10;;;3.10;;
4521;SDS011;2273;48.464;11.926;2023-12-20T03:36:56;5.97;;;3.50;;
4521;SDS011;2273;48.464;11.926;2023-12-20T03:39:21;5.40;;;3.17;;
4521;SDS011;2273;48.464;11.926;2023-12-20T03:41:47;4.57;;;3.07;;
4521;SDS011;2273;48.464;11.926;2023-12-20T03:44:12;4.90;;;3.33;;
4521;SDS011;2273;48.464;11.926;2023-12-20T03:46:37;5.83;;;3.77;;
4521;SDS011;2273;48.464;11.926;2023-12-20T03:49:03;4.30;;;2.97;;
4521;SDS011;2273;48.464;11.926;2023-12-20T03:51:28;4.53;;;2.90;;
4521;SDS011;2273;48.464;11.926;2023-12-20T03:53:53;4.97;;;3.17;;
4521;SDS011;2273;48.464;11.926;2023-12-20T03:56:19;7.50;;;2.73;;
4521;SDS011;2273;48.464;11.926;2023-12-20T03:58:44;4.00;;;2.37;;
4521;SDS011;2273;48.464;11.926;2023-12-20T04:01:10;4.07;;;2.50;;
4521;SDS011;2273;48.464;11.926;2023-12-20T04:03:38;4.70;;;2.63;;
4521;SDS011;2273;48.464;11.926;2023-12-20T04:06:05;5.03;;;2.80;;
4521;SDS011;2273;48.464;11.926;2023-12-20T04:08:30;5.00;;;3.10;;
4521;SDS011;2273;48.464;11.926;2023-12-20T04:10:56;4.77;;;2.80;;
4521;SDS011;2273;48.464;11.926;2023-12-20T04:13:21;3.90;;;2.83;;
4521;SDS011;2273;48.464;11.926;2023-12-20T04:15:47;7.33;;;3.60;;
4521;SDS011;2273;48.464;11.926;2023-12-20T04:18:15;6.73;;;3.20;;
4521;SDS011;2273;48.464;11.926;2023-12-20T04:20:40;6.13;;;3.60;;
4521;SDS011;2273;48.464;11.926;2023-12-20T04:23:05;5.07;;;3.63;;
4521;SDS011;2273;48.464;11.926;2023-12-20T04:25:31;4.40;;;3.50;;
4521;SDS011;2273;48.464;11.926;2023-12-20T04:27:56;4.30;;;3.23;;
4521;SDS011;2273;48.464;11.926;2023-12-20T04:30:22;5.03;;;3.27;;
4521;SDS011;2273;48.464;11.926;2023-12-20T04:32:47;4.00;;;3.00;;
4521;SDS011;2273;48.464;11.926;2023-12-20T04:35:13;6.33;;;3.00;;
4521;SDS011;2273;48.464;11.926;2023-12-20T04:37:38;5.97;;;3.97;;
4521;SDS011;2273;48.464;11.926;2023-12-20T04:40:04;4.17;;;3.10;;
4521;SDS011;2273;48.464;11.926;2023-12-20T04:42:30;5.05;;;3.28;;
4521;SDS011;2273;48.464;11.926;2023-12-20T04:44:56;7.53;;;3.40;;
4521;SDS011;2273;48.464;11.926;2023-12-20T04:47:21;4.37;;;3.10;;
4521;SDS011;2273;48.464;11.926;2023-12-20T04:49:47;4.32;;;3.20;;
4521;SDS011;2273;48.464;11.926;2023-12-20T04:52:13;5.13;;;3.47;;
4521;SDS011;2273;48.464;11.926;2023-12-20T04:54:39;5.20;;;3.70;;
4521;SDS011;2273;48.464;11.926;2023-12-20T04:57:05;5.23;;;3.20;;
4521;SDS011;2273;48.464;11.926;2023-12-20T04:59:30;5.63;;;3.63;;
4521;SDS011;2273;48.464;11.926;2023-12-20T05:01:56;5.70;;;3.67;;
4521;SDS011;2273;48.464;11.926;2023-12-20T05:04:22;6.63;;;3.70;;
4521;SDS011;2273;48.464;11.926;2023-12-20T05:06:48;8.60;;;3.73;;
4521;SDS011;2273;48.464;11.926;2023-12-20T05:09:15;13.25;;;4.38;;
4521;SDS011;2273;48.464;11.926;2023-12-20T05:11:40;5.50;;;3.97;;
4521;SDS011;2273;48.464;11.926;2023-12-20T05:14:06;8.53;;;3.70;;
4521;SDS011;2273;48.464;11.926;2023-12-20T05:16:32;6.10;;;4.18;;
4521;SDS011;2273;48.464;11.926;2023-12-20T05:18:57;5.10;;;3.40;;
4521;SDS011;2273;48.464;11.926;2023-12-20T05:21:25;7.00;;;3.70;;
4521;SDS011;2273;48.464;11.926;2023-12-20T05:23:51;6.37;;;3.60;;
4521;SDS011;2273;48.464;11.926;2023-12-20T05:26:16;8.77;;;3.70;;
4521;SDS011;2273;48.464;11.926;2023-12-20T05:28:42;5.20;;;3.03;;
4521;SDS011;2273;48.464;11.926;2023-12-20T05:31:07;11.53;;;3.37;;
4521;SDS011;2273;48.464;11.926;2023-12-20T05:33:33;4.40;;;2.97;;
4521;SDS011;2273;48.464;11.926;2023-12-20T05:35:58;9.87;;;3.57;;
4521;SDS011;2273;48.464;11.926;2023-12-20T05:38:24;4.53;;;3.07;;
4521;SDS011;2273;48.464;11.926;2023-12-20T05:40:49;8.50;;;3.03;;
4521;SDS011;2273;48.464;11.926;2023-12-20T05:43:15;4.40;;;3.10;;
4521;SDS011;2273;48.464;11.926;2023-12-20T05:45:40;6.40;;;3.10;;
4521;SDS011;2273;48.464;11.926;2023-12-20T05:48:06;4.33;;;3.13;;
4521;SDS011;2273;48.464;11.926;2023-12-20T05:50:31;5.20;;;3.63;;
4521;SDS011;2273;48.464;11.926;2023-12-20T05:52:57;6.00;;;3.23;;
4521;SDS011;2273;48.464;11.926;2023-12-20T05:55:22;4.33;;;2.70;;
4521;SDS011;2273;48.464;11.926;2023-12-20T05:57:48;5.37;;;3.50;;
4521;SDS011;2273;48.464;11.926;2023-12-20T06:00:13;4.13;;;2.60;;
4521;SDS011;2273;48.464;11.926;2023-12-20T06:02:39;5.30;;;3.27;;
4521;SDS011;2273;48.464;11.926;2023-12-20T06:05:08;4.43;;;3.30;;
4521;SDS011;2273;48.464;11.926;2023-12-20T06:07:33;4.27;;;3.33;;
4521;SDS011;2273;48.464;11.926;2023-12-20T06:09:59;5.57;;;3.17;;
4521;SDS011;2273;48.464;11.926;2023-12-20T06:12:24;4.47;;;3.30;;
4521;SDS011;2273;48.464;11.926;2023-12-20T06:14:52;6.25;;;3.30;;
4521;SDS011;2273;48.464;11.926;2023-12-20T06:17:18;4.60;;;2.60;;
4521;SDS011;2273;48.464;11.926;2023-12-20T06:19:43;4.10;;;2.80;;
4521;SDS011;2273;48.464;11.926;2023-12-20T06:22:10;5.10;;;3.10;;
4521;SDS011;2273;48.464;11.926;2023-12-20T06:24:36;6.30;;;3.20;;
4521;SDS011;2273;48.464;11.926;2023-12-20T06:27:01;3.63;;;2.80;;
4521;SDS011;2273;48.464;11.926;2023-12-20T06:29:27;6.43;;;3.10;;
4521;SDS011;2273;48.464;11.926;2023-12-20T06:31:53;4.17;;;2.80;;
4521;SDS011;2273;48.464;11.926;2023-12-20T06:34:18;4.50;;;2.97;;
4521;SDS011;2273;48.464;11.926;2023-12-20T06:36:44;3.60;;;2.70;;
4521;SDS011;2273;48.464;11.926;2023-12-20T06:39:09;3.63;;;2.90;;
4521;SDS011;2273;48.464;11.926;2023-12-20T06:41:37;4.00;;;2.60;;
4521;SDS011;2273;48.464;11.926;2023-12-20T06:44:03;4.50;;;3.00;;
4521;SDS011;2273;48.464;11.926;2023-12-20T06:46:29;4.67;;;3.00;;
4521;SDS011;2273;48.464;11.926;2023-12-20T06:48:54;3.80;;;2.77;;
4521;SDS011;2273;48.464;11.926;2023-12-20T06:51:19;5.40;;;3.10;;
4521;SDS011;2273;48.464;11.926;2023-12-20T06:53:45;3.63;;;2.57;;
4521;SDS011;2273;48.464;11.926;2023-12-20T06:56:10;4.70;;;2.67;;
4521;SDS011;2273;48.464;11.926;2023-12-20T06:58:40;5.10;;;2.65;;
4521;SDS011;2273;48.464;11.926;2023-12-20T07:01:05;4.73;;;2.77;;
4521;SDS011;2273;48.464;11.926;2023-12-20T07:03:30;4.50;;;3.03;;
4521;SDS011;2273;48.464;11.926;2023-12-20T07:05:56;3.30;;;2.30;;
4521;SDS011;2273;48.464;11.926;2023-12-20T07:08:21;3.97;;;2.60;;
4521;SDS011;2273;48.464;11.926;2023-12-20T07:10:47;4.30;;;2.80;;
4521;SDS011;2273;48.464;11.926;2023-12-20T07:13:12;3.33;;;2.30;;
4521;SDS011;2273;48.464;11.926;2023-12-20T07:15:38;4.30;;;2.60;;
4521;SDS011;2273;48.464;11.926;2023-12-20T07:18:04;3.80;;;2.83;;
4521;SDS011;2273;48.464;11.926;2023-12-20T07:20:30;6.53;;;2.60;;
4521;SDS011;2273;48.464;11.926;2023-12-20T07:22:55;4.90;;;2.80;;
4521;SDS011;2273;48.464;11.926;2023-12-20T07:25:21;3.80;;;2.63;;
4521;SDS011;2273;48.464;11.926;2023-12-20T07:27:46;3.17;;;2.27;;
4521;SDS011;2273;48.464;11.926;2023-12-20T07:30:12;4.50;;;2.93;;
4521;SDS011;2273;48.464;11.926;2023-12-20T07:32:37;7.00;;;2.97;;
4521;SDS011;2273;48.464;11.926;2023-12-20T07:35:03;6.30;;;2.80;;
4521;SDS011;2273;48.464;11.926;2023-12-20T07:37:28;4.10;;;2.33;;
4521;SDS011;2273;48.464;11.926;2023-12-20T07:39:54;4.27;;;2.80;;
4521;SDS011;2273;48.464;11.926;2023-12-20T07:42:19;6.10;;;3.00;;
4521;SDS011;2273;48.464;11.926;2023-12-20T07:44:45;2.87;;;2.30;;
4521;SDS011;2273;48.464;11.926;2023-12-20T07:47:10;3.13;;;2.57;;
4521;SDS011;2273;48.464;11.926;2023-12-20T07:49:37;3.97;;;2.78;;
4521;SDS011;2273;48.464;11.926;2023-12-20T07:52:02;4.73;;;2.90;;
4521;SDS011;2273;48.464;11.926;2023-12-20T07:54:28;4.40;;;2.70;;
4521;SDS011;2273;48.464;11.926;2023-12-20T07:56:53;3.50;;;2.47;;
4521;SDS011;2273;48.464;11.926;2023-12-20T07:59:19;4.30;;;2.93;;
4521;SDS011;2273;48.464;11.926;2023-12-20T08:01:44;3.57;;;2.70;;
4521;SDS011;2273;48.464;11.926;2023-12-20T08:04:10;6.43;;;3.20;;
4521;SDS011;2273;48.464;11.926;2023-12-20T08:06:35;4.20;;;2.80;;
4521;SDS011;2273;48.464;11.926;2023-12-20T08:09:01;4.40;;;3.10;;
4521;SDS011;2273;48.464;11.926;2023-12-20T08:11:26;4.70;;;3.40;;
4521;SDS011;2273;48.464;11.926;2023-12-20T08:13:52;4.03;;;3.00;;
4521;SDS011;2273;48.464;11.926;2023-12-20T08:16:17;4.00;;;3.33;;
4521;SDS011;2273;48.464;11.926;2023-12-20T08:18:43;6.60;;;4.23;;
4521;SDS011;2273;48.464;11.926;2023-12-20T08:21:08;5.23;;;3.90;;
4521;SDS011;2273;48.464;11.926;2023-12-20T08:23:34;5.53;;;3.73;;
4521;SDS011;2273;48.464;11.926;2023-12-20T08:26:08;6.10;;;4.27;;
4521;SDS011;2273;48.464;11.926;2023-12-20T08:28:34;7.57;;;4.70;;
4521;SDS011;2273;48.464;11.926;2023-12-20T08:30:59;8.47;;;4.33;;
4521;SDS011;2273;48.464;11.926;2023-12-20T08:33:25;6.33;;;4.40;;
4521;SDS011;2273;48.464;11.926;2023-12-20T08:35:51;7.17;;;4.43;;
4521;SDS011;2273;48.464;11.926;2023-12-20T08:38:16;7.67;;;4.60;;
4521;SDS011;2273;48.464;11.926;2023-12-20T08:40:42;6.90;;;4.60;;
4521;SDS011;2273;48.464;11.926;2023-12-20T08:43:08;8.10;;;4.80;;
4521;SDS011;2273;48.464;11.926;2023-12-20T08:45:34;10.40;;;5.60;;
4521;SDS011;2273;48.464;11.926;2023-12-20T08:47:59;8.10;;;5.40;;
4521;SDS011;2273;48.464;11.926;2023-12-20T08:50:25;9.60;;;5.20;;
4521;SDS011;2273;48.464;11.926;2023-12-20T08:52:50;8.17;;;5.10;;
4521;SDS011;2273;48.464;11.926;2023-12-20T08:55:16;11.20;;;6.47;;
4521;SDS011;2273;48.464;11.926;2023-12-20T08:57:43;9.70;;;6.27;;
4521;SDS011;2273;48.464;11.926;2023-12-20T09:00:09;9.03;;;5.57;;
4521;SDS011;2273;48.464;11.926;2023-12-20T09:02:34;8.83;;;5.30;;
4521;SDS011;2273;48.464;11.926;2023-12-20T09:05:03;12.57;;;6.37;;
4521;SDS011;2273;48.464;11.926;2023-12-20T09:07:28;9.30;;;5.77;;
4521;SDS011;2273;48.464;11.926;2023-12-20T09:09:56;9.67;;;6.17;;
4521;SDS011;2273;48.464;11.926;2023-12-20T09:12:22;10.30;;;5.57;;
4521;SDS011;2273;48.464;11.926;2023-12-20T09:14:48;9.17;;;6.17;;
4521;SDS011;2273;48.464;11.926;2023-12-20T09:17:14;8.40;;;5.90;;
4521;SDS011;2273;48.464;11.926;2023-12-20T09:19:41;8.45;;;5.63;;
4521;SDS011;2273;48.464;11.926;2023-12-20T09:22:06;9.57;;;6.20;;
4521;SDS011;2273;48.464;11.926;2023-12-20T09:24:32;8.57;;;5.43;;
4521;SDS011;2273;48.464;11.926;2023-12-20T09:26:58;8.73;;;5.77;;
4521;SDS011;2273;48.464;11.926;2023-12-20T09:29:23;8.93;;;6.13;;
4521;SDS011;2273;48.464;11.926;2023-12-20T09:31:49;12.47;;;6.50;;
4521;SDS011;2273;48.464;11.926;2023-12-20T09:34:15;8.83;;;6.00;;
4521;SDS011;2273;48.464;11.926;2023-12-20T09:36:42;9.13;;;5.53;;
4521;SDS011;2273;48.464;11.926;2023-12-20T09:39:14;8.73;;;5.90;;
4521;SDS011;2273;48.464;11.926;2023-12-20T09:41:42;7.40;;;5.33;;
4521;SDS011;2273;48.464;11.926;2023-12-20T09:44:11;7.50;;;5.07;;
4521;SDS011;2273;48.464;11.926;2023-12-20T09:46:39;7.83;;;5.20;;
4521;SDS011;2273;48.464;11.926;2023-12-20T09:49:08;8.93;;;4.93;;
4521;SDS011;2273;48.464;11.926;2023-12-20T09:51:34;7.40;;;4.80;;
4521;SDS011;2273;48.464;11.926;2023-12-20T09:53:59;7.87;;;5.10;;
4521;SDS011;2273;48.464;11.926;2023-12-20T09:56:27;7.13;;;4.67;;
4521;SDS011;2273;48.464;11.926;2023-12-20T09:58:52;6.93;;;5.03;;
4521;SDS011;2273;48.464;11.926;2023-12-20T10:01:19;7.80;;;5.10;;
4521;SDS011;2273;48.464;11.926;2023-12-20T10:03:45;9.73;;;5.03;;
4521;SDS011;2273;48.464;11.926;2023-12-20T10:06:10;7.17;;;5.10;;
4521;SDS011;2273;48.464;11.926;2023-12-20T10:08:36;8.23;;;5.10;;
4521;SDS011;2273;48.464;11.926;2023-12-20T10:11:01;7.70;;;5.07;;
4521;SDS011;2273;48.464;11.926;2023-12-20T10:13:29;8.10;;;4.97;;
4521;SDS011;2273;48.464;11.926;2023-12-20T10:15:54;7.60;;;4.70;;
4521;SDS011;2273;48.464;11.926;2023-12-20T10:18:20;6.63;;;4.60;;
4521;SDS011;2273;48.464;11.926;2023-12-20T10:20:46;7.77;;;4.97;;
4521;SDS011;2273;48.464;11.926;2023-12-20T10:23:12;7.40;;;5.00;;
4521;SDS011;2273;48.464;11.926;2023-12-20T10:25:39;7.23;;;4.80;;
4521;SDS011;2273;48.464;11.926;2023-12-20T10:28:14;5.53;;;3.90;;
4521;SDS011;2273;48.464;11.926;2023-12-20T10:30:44;7.60;;;3.67;;
4521;SDS011;2273;48.464;11.926;2023-12-20T10:33:09;6.83;;;4.90;;
4521;SDS011;2273;48.464;11.926;2023-12-20T10:35:36;4.93;;;3.70;;
4521;SDS011;2273;48.464;11.926;2023-12-20T10:38:03;5.50;;;3.70;;
4521;SDS011;2273;48.464;11.926;2023-12-20T10:40:30;5.50;;;3.90;;
4521;SDS011;2273;48.464;11.926;2023-12-20T10:42:56;5.60;;;4.17;;
4521;SDS011;2273;48.464;11.926;2023-12-20T10:45:23;6.00;;;3.60;;
4521;SDS011;2273;48.464;11.926;2023-12-20T10:47:49;5.23;;;3.50;;
4521;SDS011;2273;48.464;11.926;2023-12-20T10:50:15;4.70;;;3.20;;
4521;SDS011;2273;48.464;11.926;2023-12-20T10:52:40;4.60;;;3.57;;
4521;SDS011;2273;48.464;11.926;2023-12-20T10:55:06;5.67;;;3.20;;
4521;SDS011;2273;48.464;11.926;2023-12-20T10:57:32;5.23;;;3.70;;
4521;SDS011;2273;48.464;11.926;2023-12-20T10:59:59;4.50;;;2.80;;
4521;SDS011;2273;48.464;11.926;2023-12-20T11:02:29;4.90;;;3.40;;
4521;SDS011;2273;48.464;11.926;2023-12-20T11:05:01;4.10;;;3.20;;
4521;SDS011;2273;48.464;11.926;2023-12-20T11:07:35;4.00;;;3.00;;
4521;SDS011;2273;48.464;11.926;2023-12-20T11:10:10;5.20;;;3.30;;
4521;SDS011;2273;48.464;11.926;2023-12-20T11:15:12;3.67;;;2.80;;
4521;SDS011;2273;48.464;11.926;2023-12-20T11:17:39;3.90;;;2.97;;
4521;SDS011;2273;48.464;11.926;2023-12-20T11:20:05;3.90;;;2.60;;
4521;SDS011;2273;48.464;11.926;2023-12-20T11:22:31;3.73;;;2.90;;
4521;SDS011;2273;48.464;11.926;2023-12-20T11:25:07;3.87;;;3.00;;
4521;SDS011;2273;48.464;11.926;2023-12-20T11:27:34;4.20;;;3.20;;
4521;SDS011;2273;48.464;11.926;2023-12-20T11:29:59;7.10;;;4.07;;
4521;SDS011;2273;48.464;11.926;2023-12-20T11:32:28;9.17;;;4.90;;
4521;SDS011;2273;48.464;11.926;2023-12-20T11:34:57;6.93;;;4.20;;
4521;SDS011;2273;48.464;11.926;2023-12-20T11:37:30;6.40;;;3.77;;
4521;SDS011;2273;48.464;11.926;2023-12-20T11:40:07;11.70;;;6.07;;
4521;SDS011;2273;48.464;11.926;2023-12-20T11:42:50;11.67;;;6.20;;
4521;SDS011;2273;48.464;11.926;2023-12-20T11:45:23;7.87;;;4.73;;
4521;SDS011;2273;48.464;11.926;2023-12-20T11:47:50;11.50;;;6.37;;
4521;SDS011;2273;48.464;11.926;2023-12-20T11:50:16;7.40;;;4.80;;
4521;SDS011;2273;48.464;11.926;2023-12-20T11:52:45;7.53;;;4.67;;
4521;SDS011;2273;48.464;11.926;2023-12-20T11:55:10;7.23;;;4.53;;
4521;SDS011;2273;48.464;11.926;2023-12-20T11:57:36;5.00;;;3.60;;
4521;SDS011;2273;48.464;11.926;2023-12-20T12:00:02;4.13;;;2.97;;
4521;SDS011;2273;48.464;11.926;2023-12-20T12:02:37;3.90;;;2.80;;
4521;SDS011;2273;48.464;11.926;2023-12-20T12:05:02;3.83;;;2.87;;
4521;SDS011;2273;48.464;11.926;2023-12-20T12:07:30;4.13;;;3.13;;
4521;SDS011;2273;48.464;11.926;2023-12-20T12:09:56;5.30;;;3.50;;
4521;SDS011;2273;48.464;11.926;2023-12-20T12:12:22;6.57;;;3.57;;
4521;SDS011;2273;48.464;11.926;2023-12-20T12:14:48;5.20;;;2.80;;
4521;SDS011;2273;48.464;11.926;2023-12-20T12:17:14;4.07;;;2.63;;
4521;SDS011;2273;48.464;11.926;2023-12-20T12:19:41;3.77;;;2.80;;
4521;SDS011;2273;48.464;11.926;2023-12-20T12:22:07;6.00;;;3.23;;
4521;SDS011;2273;48.464;11.926;2023-12-20T12:24:45;4.67;;;3.17;;
4521;SDS011;2273;48.464;11.926;2023-12-20T12:27:11;4.17;;;3.03;;
4521;SDS011;2273;48.464;11.926;2023-12-20T12:29:37;4.17;;;3.07;;
4521;SDS011;2273;48.464;11.926;2023-12-20T12:32:07;3.97;;;3.00;;
4521;SDS011;2273;48.464;11.926;2023-12-20T12:34:33;4.50;;;3.30;;
4521;SDS011;2273;48.464;11.926;2023-12-20T12:37:03;5.43;;;3.53;;
4521;SDS011;2273;48.464;11.926;2023-12-20T12:39:29;4.90;;;3.60;;
4521;SDS011;2273;48.464;11.926;2023-12-20T12:41:55;3.13;;;2.47;;
4521;SDS011;2273;48.464;11.926;2023-12-20T12:44:21;3.87;;;2.67;;
4521;SDS011;2273;48.464;11.926;2023-12-20T12:46:48;6.10;;;3.00;;
4521;SDS011;2273;48.464;11.926;2023-12-20T12:49:18;3.50;;;2.60;;
4521;SDS011;2273;48.464;11.926;2023-12-20T12:51:47;3.63;;;2.20;;
4521;SDS011;2273;48.464;11.926;2023-12-20T12:54:13;3.40;;;2.10;;
4521;SDS011;2273;48.464;11.926;2023-12-20T12:56:40;3.30;;;2.17;;
4521;SDS011;2273;48.464;11.926;2023-12-20T12:59:06;3.80;;;2.60;;
4521;SDS011;2273;48.464;11.926;2023-12-20T13:01:31;3.20;;;2.30;;
4521;SDS011;2273;48.464;11.926;2023-12-20T13:03:57;2.60;;;2.00;;
4521;SDS011;2273;48.464;11.926;2023-12-20T13:06:22;2.93;;;1.83;;
4521;SDS011;2273;48.464;11.926;2023-12-20T13:08:48;2.70;;;2.07;;
4521;SDS011;2273;48.464;11.926;2023-12-20T13:11:13;4.33;;;2.93;;
4521;SDS011;2273;48.464;11.926;2023-12-20T13:13:39;3.07;;;2.20;;
4521;SDS011;2273;48.464;11.926;2023-12-20T13:16:04;4.50;;;2.23;;
4521;SDS011;2273;48.464;11.926;2023-12-20T13:18:30;4.23;;;2.53;;
4521;SDS011;2273;48.464;11.926;2023-12-20T13:20:55;3.60;;;2.20;;
4521;SDS011;2273;48.464;11.926;2023-12-20T13:23:21;3.47;;;2.50;;
4521;SDS011;2273;48.464;11.926;2023-12-20T13:25:46;4.37;;;2.27;;
4521;SDS011;2273;48.464;11.926;2023-12-20T13:28:12;3.80;;;2.43;;
4521;SDS011;2273;48.464;11.926;2023-12-20T13:30:37;4.10;;;2.43;;
4521;SDS011;2273;48.464;11.926;2023-12-20T13:33:04;4.13;;;2.53;;
4521;SDS011;2273;48.464;11.926;2023-12-20T13:35:30;4.20;;;2.63;;
4521;SDS011;2273;48.464;11.926;2023-12-20T13:37:57;3.50;;;2.23;;
4521;SDS011;2273;48.464;11.926;2023-12-20T13:40:22;4.70;;;2.50;;
4521;SDS011;2273;48.464;11.926;2023-12-20T13:42:48;4.83;;;2.00;;
4521;SDS011;2273;48.464;11.926;2023-12-20T13:45:13;4.93;;;2.43;;
4521;SDS011;2273;48.464;11.926;2023-12-20T13:47:39;3.63;;;2.10;;
4521;SDS011;2273;48.464;11.926;2023-12-20T13:50:04;6.17;;;2.70;;
4521;SDS011;2273;48.464;11.926;2023-12-20T13:52:30;4.30;;;2.60;;
4521;SDS011;2273;48.464;11.926;2023-12-20T13:54:56;4.03;;;2.23;;
4521;SDS011;2273;48.464;11.926;2023-12-20T13:57:21;4.30;;;2.53;;
4521;SDS011;2273;48.464;11.926;2023-12-20T13:59:47;3.60;;;2.53;;
4521;SDS011;2273;48.464;11.926;2023-12-20T14:02:13;4.93;;;2.47;;
4521;SDS011;2273;48.464;11.926;2023-12-20T14:04:38;6.00;;;3.10;;
4521;SDS011;2273;48.464;11.926;2023-12-20T14:07:04;6.13;;;2.60;;
4521;SDS011;2273;48.464;11.926;2023-12-20T14:09:32;4.70;;;2.43;;
4521;SDS011;2273;48.464;11.926;2023-12-20T14:11:58;4.53;;;2.90;;
4521;SDS011;2273;48.464;11.926;2023-12-20T14:14:23;5.33;;;2.67;;
4521;SDS011;2273;48.464;11.926;2023-12-20T14:16:49;3.20;;;2.30;;
4521;SDS011;2273;48.464;11.926;2023-12-20T14:19:14;4.57;;;2.80;;
4521;SDS011;2273;48.464;11.926;2023-12-20T14:21:40;5.60;;;2.90;;
4521;SDS011;2273;48.464;11.926;2023-12-20T14:24:05;11.93;;;2.77;;
4521;SDS011;2273;48.464;11.926;2023-12-20T14:26:31;7.53;;;2.83;;
4521;SDS011;2273;48.464;11.926;2023-12-20T14:28:56;5.80;;;2.50;;
4521;SDS011;2273;48.464;11.926;2023-12-20T14:31:22;11.27;;;3.17;;
4521;SDS011;2273;48.464;11.926;2023-12-20T14:33:49;4.87;;;2.90;;
4521;SDS011;2273;48.464;11.926;2023-12-20T14:36:16;3.60;;;2.50;;
4521;SDS011;2273;48.464;11.926;2023-12-20T14:38:43;4.37;;;2.50;;
4521;SDS011;2273;48.464;11.926;2023-12-20T14:41:09;6.23;;;3.10;;
4521;SDS011;2273;48.464;11.926;2023-12-20T14:43:34;4.23;;;2.23;;
4521;SDS011;2273;48.464;11.926;2023-12-20T14:46:00;6.53;;;3.50;;
4521;SDS011;2273;48.464;11.926;2023-12-20T14:48:25;9.53;;;3.87;;
4521;SDS011;2273;48.464;11.926;2023-12-20T14:50:52;5.73;;;3.43;;
4521;SDS011;2273;48.464;11.926;2023-12-20T14:53:18;6.70;;;3.30;;
4521;SDS011;2273;48.464;11.926;2023-12-20T14:55:44;5.53;;;2.63;;